createdAt,value
2022-11-24T00:05:04.172Z,38.90
2022-11-24T00:11:19.519Z,38.60
2022-11-24T00:17:35.453Z,39.20
2022-11-24T00:23:51.368Z,39.40
2022-11-24T00:30:04.852Z,39.20
2022-11-24T00:36:20.754Z,39.40
2022-11-24T00:42:33.493Z,39.80
2022-11-24T00:48:51.469Z,39.00
2022-11-24T00:55:06.022Z,38.00
2022-11-24T01:01:23.778Z,38.30
2022-11-24T01:07:37.270Z,38.70
2022-11-24T01:13:48.120Z,38.80
2022-11-24T01:20:03.345Z,39.10
2022-11-24T01:26:18.265Z,39.10
2022-11-24T01:32:37.808Z,39.00
2022-11-24T01:38:51.875Z,38.90
2022-11-24T01:45:35.451Z,39.00
2022-11-24T01:51:48.701Z,39.00
2022-11-24T01:58:05.351Z,39.00
2022-11-24T02:04:18.148Z,39.00
2022-11-24T02:10:29.786Z,39.00
2022-11-24T02:16:42.571Z,39.10
2022-11-24T02:23:02.182Z,39.00
2022-11-24T02:29:18.294Z,38.90
2022-11-24T02:35:34.314Z,38.70
2022-11-24T02:41:48.614Z,38.80
2022-11-24T02:48:04.202Z,39.00
2022-11-24T02:54:17.494Z,39.20
2022-11-24T03:00:33.080Z,39.10
2022-11-24T03:06:50.361Z,38.70
2022-11-24T03:13:10.735Z,38.70
2022-11-24T03:19:21.789Z,39.30
2022-11-24T03:25:36.785Z,39.70
2022-11-24T03:31:49.668Z,39.50
2022-11-24T03:38:06.388Z,39.10
2022-11-24T03:44:16.519Z,39.20
2022-11-24T03:50:32.245Z,39.00
2022-11-24T03:56:46.717Z,38.80
2022-11-24T04:03:00.196Z,38.80
2022-11-24T04:09:16.725Z,38.60
2022-11-24T04:15:30.845Z,38.60
2022-11-24T04:21:48.179Z,38.60
2022-11-24T04:28:05.048Z,38.50
2022-11-24T04:34:14.977Z,38.40
2022-11-24T04:40:30.250Z,38.30
2022-11-24T04:46:43.899Z,38.40
2022-11-24T04:52:57.490Z,38.40
2022-11-24T04:59:08.802Z,38.30
2022-11-24T05:05:26.554Z,38.30
2022-11-24T05:11:39.792Z,38.30
2022-11-24T05:17:54.311Z,38.30
2022-11-24T05:24:10.331Z,38.30
2022-11-24T05:30:26.635Z,38.40
2022-11-24T05:36:57.654Z,38.30
2022-11-24T05:43:11.068Z,38.30
2022-11-24T05:49:29.798Z,38.40
2022-11-24T05:55:43.163Z,38.30
2022-11-24T06:02:00.213Z,38.40
2022-11-24T06:08:17.283Z,38.20
2022-11-24T06:14:27.085Z,38.20
2022-11-24T06:20:42.223Z,38.30
2022-11-24T06:26:55.119Z,38.40
2022-11-24T06:33:11.934Z,38.40
2022-11-24T06:39:25.967Z,38.40
2022-11-24T06:45:41.745Z,38.50
2022-11-24T06:51:52.929Z,38.60
2022-11-24T06:58:06.521Z,38.60
2022-11-24T07:04:24.625Z,38.70
2022-11-24T07:10:40.219Z,38.90
2022-11-24T07:16:51.278Z,39.40
2022-11-24T07:23:04.907Z,39.70
2022-11-24T07:29:20.738Z,39.80
2022-11-24T07:35:29.747Z,39.40
2022-11-24T07:41:43.158Z,39.50
2022-11-24T07:47:56.624Z,39.50
2022-11-24T07:54:12.637Z,39.50
2022-11-24T08:00:27.891Z,39.40
2022-11-24T08:06:47.118Z,39.00
2022-11-24T08:12:57.192Z,39.10
2022-11-24T08:19:15.109Z,39.10
2022-11-24T08:25:33.412Z,39.00
2022-11-24T08:31:49.988Z,39.00
2022-11-24T08:38:05.716Z,38.70
2022-11-24T08:44:19.232Z,38.90
2022-11-24T08:50:38.849Z,38.80
2022-11-24T08:56:57.155Z,38.80
2022-11-24T09:03:13.217Z,38.60
2022-11-24T09:09:29.047Z,38.80
2022-11-24T09:15:42.421Z,38.70
2022-11-24T09:21:51.115Z,38.30
2022-11-24T09:28:03.292Z,38.50
2022-11-24T09:34:16.738Z,38.60
2022-11-24T09:40:30.287Z,38.50
2022-11-24T09:46:49.063Z,38.50
2022-11-24T09:53:08.828Z,39.30
2022-11-24T09:59:27.684Z,38.80
2022-11-24T10:05:46.381Z,38.40
2022-11-24T10:12:06.302Z,38.50
2022-11-24T10:18:49.160Z,38.60
2022-11-24T10:25:19.582Z,38.50
2022-11-24T10:31:48.942Z,38.50
2022-11-24T10:38:24.142Z,38.90
2022-11-24T10:44:37.715Z,38.80
2022-11-24T10:50:53.981Z,38.40
2022-11-24T10:57:10.151Z,38.70
2022-11-24T11:03:29.752Z,38.70
2022-11-24T11:09:44.400Z,38.70
2022-11-24T11:16:00.472Z,38.90
2022-11-24T11:22:21.554Z,38.90
2022-11-24T11:28:37.707Z,38.50
2022-11-24T11:34:53.464Z,38.60
2022-11-24T11:41:05.489Z,38.80
2022-11-24T11:47:26.211Z,38.80
2022-11-24T11:53:41.295Z,38.70
2022-11-24T12:00:12.979Z,39.20
2022-11-24T12:06:33.071Z,39.10
2022-11-24T12:13:07.634Z,39.50
2022-11-24T12:19:48.827Z,39.30
2022-11-24T12:26:04.871Z,39.10
2022-11-24T12:32:21.112Z,39.00
2022-11-24T12:38:41.381Z,39.00
2022-11-24T12:45:19.410Z,39.00
2022-11-24T12:51:33.431Z,39.50
2022-11-24T12:57:50.811Z,39.00
2022-11-24T13:04:17.421Z,39.00
2022-11-24T13:10:55.792Z,38.50
2022-11-24T13:23:28.295Z,39.40
2022-11-24T13:29:43.135Z,39.30
2022-11-24T13:36:38.879Z,38.90
2022-11-24T13:43:19.534Z,38.30
2022-11-24T13:49:43.797Z,39.70
2022-11-24T13:56:07.688Z,40.60
2022-11-24T14:02:28.302Z,39.90
2022-11-24T14:08:42.479Z,38.70
2022-11-24T14:14:56.630Z,38.90
2022-11-24T14:21:14.756Z,39.20
2022-11-24T14:27:30.463Z,40.30
2022-11-24T14:33:47.934Z,39.90
2022-11-24T14:40:05.955Z,39.70
2022-11-24T14:46:21.832Z,39.10
2022-11-24T14:52:35.583Z,39.00
2022-11-24T14:58:51.306Z,39.40
2022-11-24T15:05:09.460Z,39.70
2022-11-24T15:11:26.757Z,39.60
2022-11-24T15:17:40.384Z,38.90
2022-11-24T15:24:13.083Z,39.10
2022-11-24T15:30:27.497Z,39.90
2022-11-24T15:36:41.429Z,40.10
2022-11-24T15:43:03.475Z,39.40
2022-11-24T15:49:16.842Z,38.90
2022-11-24T15:55:35.730Z,38.80
2022-11-24T16:01:54.296Z,39.20
2022-11-24T16:08:13.988Z,39.30
2022-11-24T16:14:30.660Z,39.90
2022-11-24T16:20:45.072Z,39.60
2022-11-24T16:26:59.729Z,38.90
2022-11-24T16:33:12.950Z,39.10
2022-11-24T16:39:31.300Z,39.50
2022-11-24T16:45:49.635Z,40.00
2022-11-24T16:52:07.583Z,39.80
2022-11-24T16:58:23.717Z,39.60
2022-11-24T17:04:37.558Z,38.80
2022-11-24T17:10:53.511Z,38.90
2022-11-24T17:17:07.227Z,39.00
2022-11-24T17:23:25.733Z,39.10
2022-11-24T17:29:41.728Z,39.10
2022-11-24T17:35:56.512Z,39.00
2022-11-24T17:42:10.767Z,39.00
2022-11-24T17:48:26.591Z,38.90
2022-11-24T17:54:46.409Z,39.00
2022-11-24T18:00:51.151Z,38.20
2022-11-24T18:07:03.369Z,38.10
2022-11-24T18:13:40.996Z,38.20
2022-11-24T18:19:36.786Z,38.50
2022-11-24T18:25:54.371Z,38.80
2022-11-24T18:32:11.160Z,38.80
2022-11-24T18:38:26.107Z,38.80
2022-11-24T18:44:39.996Z,39.00
2022-11-24T18:50:58.061Z,39.10
2022-11-24T18:57:14.179Z,39.40
2022-11-24T19:03:30.880Z,39.00
2022-11-24T19:09:46.053Z,38.40
2022-11-24T19:16:04.252Z,38.20
2022-11-24T19:22:19.166Z,38.20
2022-11-24T19:28:35.345Z,38.30
2022-11-24T19:34:51.389Z,38.40
2022-11-24T19:41:14.068Z,38.50
2022-11-24T19:47:30.308Z,38.60
2022-11-24T19:53:46.093Z,39.10
2022-11-24T20:00:03.066Z,39.80
2022-11-24T20:06:19.469Z,38.20
2022-11-24T20:12:37.949Z,38.40
2022-11-24T20:18:53.867Z,38.50
2022-11-24T20:25:05.107Z,38.60
2022-11-24T20:31:14.727Z,38.60
2022-11-24T20:37:32.774Z,39.20
2022-11-24T20:43:42.802Z,39.00
2022-11-24T20:49:56.367Z,38.20
2022-11-24T20:56:15.418Z,38.60
2022-11-24T21:02:31.707Z,38.80
2022-11-24T21:08:43.434Z,39.20
2022-11-24T21:14:59.378Z,39.40
2022-11-24T21:21:16.813Z,39.60
2022-11-24T21:27:35.141Z,40.00
2022-11-24T21:33:54.534Z,39.40
2022-11-24T21:40:12.146Z,39.10
2022-11-24T21:46:27.360Z,39.20
2022-11-24T21:52:43.221Z,39.80
2022-11-24T21:59:01.004Z,40.40
2022-11-24T22:05:18.750Z,40.50
2022-11-24T22:11:30.049Z,40.40
2022-11-24T22:17:40.932Z,40.50
2022-11-24T22:23:55.556Z,40.60
2022-11-24T22:30:12.542Z,40.80
2022-11-24T22:36:29.235Z,40.40
2022-11-24T22:42:43.375Z,39.50
2022-11-24T22:48:59.794Z,39.70
2022-11-24T22:55:16.171Z,40.00
2022-11-24T23:01:35.594Z,40.20
2022-11-24T23:07:50.395Z,40.00
2022-11-24T23:14:06.974Z,40.00
2022-11-24T23:20:26.662Z,40.20
2022-11-24T23:26:47.762Z,40.30
2022-11-24T23:33:04.998Z,39.30
2022-11-24T23:39:18.197Z,39.20
2022-11-24T23:45:34.258Z,39.20
2022-11-24T23:51:49.781Z,39.40
2022-11-24T23:58:03.507Z,39.50
